sensor_id;sensor_type;location;lat;lon;timestamp;P1;durP1;ratioP1;P2;durP2;ratioP2
43670;SDS011;29267;50.906;7.248;2023-10-13T00:01:53;19.15;;;8.15;;
43670;SDS011;29267;50.906;7.248;2023-10-13T00:04:20;18.83;;;8.18;;
43670;SDS011;29267;50.906;7.248;2023-10-13T00:06:59;14.70;;;7.93;;
43670;SDS011;29267;50.906;7.248;2023-10-13T00:09:27;16.20;;;8.55;;
43670;SDS011;29267;50.906;7.248;2023-10-13T00:12:02;16.10;;;7.88;;
43670;SDS011;29267;50.906;7.248;2023-10-13T00:14:29;16.75;;;8.98;;
43670;SDS011;29267;50.906;7.248;2023-10-13T00:17:03;17.25;;;8.98;;
43670;SDS011;29267;50.906;7.248;2023-10-13T00:19:30;11.55;;;7.78;;
43670;SDS011;29267;50.906;7.248;2023-10-13T00:24:37;17.38;;;8.68;;
43670;SDS011;29267;50.906;7.248;2023-10-13T00:27:16;18.95;;;8.60;;
43670;SDS011;29267;50.906;7.248;2023-10-13T00:29:55;19.08;;;9.02;;
43670;SDS011;29267;50.906;7.248;2023-10-13T00:32:39;16.42;;;7.22;;
43670;SDS011;29267;50.906;7.248;2023-10-13T00:35:10;14.27;;;8.68;;
43670;SDS011;29267;50.906;7.248;2023-10-13T00:37:39;18.85;;;8.43;;
43670;SDS011;29267;50.906;7.248;2023-10-13T00:40:09;15.95;;;8.13;;
43670;SDS011;29267;50.906;7.248;2023-10-13T00:42:56;17.35;;;8.10;;
43670;SDS011;29267;50.906;7.248;2023-10-13T00:45:47;18.10;;;7.78;;
43670;SDS011;29267;50.906;7.248;2023-10-13T00:48:25;10.57;;;7.63;;
43670;SDS011;29267;50.906;7.248;2023-10-13T00:51:08;13.35;;;7.63;;
43670;SDS011;29267;50.906;7.248;2023-10-13T00:53:43;15.82;;;8.27;;
43670;SDS011;29267;50.906;7.248;2023-10-13T00:56:11;15.18;;;8.77;;
43670;SDS011;29267;50.906;7.248;2023-10-13T00:58:45;14.20;;;8.13;;
43670;SDS011;29267;50.906;7.248;2023-10-13T01:01:18;15.35;;;7.80;;
43670;SDS011;29267;50.906;7.248;2023-10-13T01:09:01;16.98;;;7.70;;
43670;SDS011;29267;50.906;7.248;2023-10-13T01:11:43;16.27;;;9.02;;
43670;SDS011;29267;50.906;7.248;2023-10-13T01:14:10;17.58;;;8.30;;
43670;SDS011;29267;50.906;7.248;2023-10-13T01:16:36;14.25;;;8.32;;
43670;SDS011;29267;50.906;7.248;2023-10-13T01:19:08;11.80;;;7.70;;
43670;SDS011;29267;50.906;7.248;2023-10-13T01:21:40;18.40;;;8.70;;
43670;SDS011;29267;50.906;7.248;2023-10-13T01:24:06;14.30;;;7.75;;
43670;SDS011;29267;50.906;7.248;2023-10-13T01:26:36;16.25;;;7.88;;
43670;SDS011;29267;50.906;7.248;2023-10-13T01:29:07;14.43;;;8.52;;
43670;SDS011;29267;50.906;7.248;2023-10-13T01:31:37;15.73;;;7.30;;
43670;SDS011;29267;50.906;7.248;2023-10-13T01:34:10;19.60;;;9.70;;
43670;SDS011;29267;50.906;7.248;2023-10-13T01:36:47;21.75;;;8.30;;
43670;SDS011;29267;50.906;7.248;2023-10-13T01:39:18;14.70;;;7.95;;
43670;SDS011;29267;50.906;7.248;2023-10-13T01:41:46;14.45;;;8.32;;
43670;SDS011;29267;50.906;7.248;2023-10-13T01:44:18;14.10;;;7.75;;
43670;SDS011;29267;50.906;7.248;2023-10-13T01:46:45;15.38;;;8.00;;
43670;SDS011;29267;50.906;7.248;2023-10-13T01:49:12;16.15;;;8.68;;
43670;SDS011;29267;50.906;7.248;2023-10-13T01:51:40;13.27;;;8.65;;
43670;SDS011;29267;50.906;7.248;2023-10-13T01:54:06;13.75;;;8.27;;
43670;SDS011;29267;50.906;7.248;2023-10-13T01:56:36;11.93;;;7.05;;
43670;SDS011;29267;50.906;7.248;2023-10-13T01:59:07;13.50;;;7.93;;
43670;SDS011;29267;50.906;7.248;2023-10-13T02:01:34;12.38;;;7.70;;
43670;SDS011;29267;50.906;7.248;2023-10-13T02:04:01;12.10;;;7.00;;
43670;SDS011;29267;50.906;7.248;2023-10-13T02:06:31;18.80;;;7.95;;
43670;SDS011;29267;50.906;7.248;2023-10-13T02:09:05;14.85;;;7.57;;
43670;SDS011;29267;50.906;7.248;2023-10-13T02:11:49;12.07;;;7.75;;
43670;SDS011;29267;50.906;7.248;2023-10-13T02:14:19;13.02;;;7.35;;
43670;SDS011;29267;50.906;7.248;2023-10-13T02:16:47;17.35;;;7.95;;
43670;SDS011;29267;50.906;7.248;2023-10-13T02:19:16;12.95;;;7.40;;
43670;SDS011;29267;50.906;7.248;2023-10-13T02:21:44;13.55;;;7.70;;
43670;SDS011;29267;50.906;7.248;2023-10-13T02:24:10;21.80;;;7.85;;
43670;SDS011;29267;50.906;7.248;2023-10-13T02:26:43;15.30;;;7.75;;
43670;SDS011;29267;50.906;7.248;2023-10-13T02:29:09;12.00;;;7.63;;
43670;SDS011;29267;50.906;7.248;2023-10-13T02:31:42;17.48;;;8.35;;
43670;SDS011;29267;50.906;7.248;2023-10-13T02:34:19;15.05;;;8.40;;
43670;SDS011;29267;50.906;7.248;2023-10-13T02:36:47;18.52;;;8.20;;
43670;SDS011;29267;50.906;7.248;2023-10-13T02:39:17;14.98;;;8.07;;
43670;SDS011;29267;50.906;7.248;2023-10-13T02:41:51;20.60;;;7.30;;
43670;SDS011;29267;50.906;7.248;2023-10-13T02:44:17;13.35;;;7.97;;
43670;SDS011;29267;50.906;7.248;2023-10-13T02:46:55;19.38;;;8.88;;
43670;SDS011;29267;50.906;7.248;2023-10-13T02:49:21;13.80;;;7.68;;
43670;SDS011;29267;50.906;7.248;2023-10-13T02:51:51;15.48;;;8.57;;
43670;SDS011;29267;50.906;7.248;2023-10-13T02:54:18;17.83;;;8.32;;
43670;SDS011;29267;50.906;7.248;2023-10-13T02:56:44;15.18;;;7.90;;
43670;SDS011;29267;50.906;7.248;2023-10-13T02:59:25;12.88;;;7.88;;
43670;SDS011;29267;50.906;7.248;2023-10-13T03:02:11;16.20;;;8.82;;
43670;SDS011;29267;50.906;7.248;2023-10-13T03:04:49;18.15;;;8.40;;
43670;SDS011;29267;50.906;7.248;2023-10-13T03:07:15;14.52;;;9.00;;
43670;SDS011;29267;50.906;7.248;2023-10-13T03:09:44;17.65;;;8.75;;
43670;SDS011;29267;50.906;7.248;2023-10-13T03:12:16;20.25;;;9.80;;
43670;SDS011;29267;50.906;7.248;2023-10-13T03:14:42;15.45;;;8.93;;
43670;SDS011;29267;50.906;7.248;2023-10-13T03:17:12;12.45;;;8.82;;
43670;SDS011;29267;50.906;7.248;2023-10-13T03:19:43;18.02;;;8.18;;
43670;SDS011;29267;50.906;7.248;2023-10-13T03:22:16;15.68;;;8.70;;
43670;SDS011;29267;50.906;7.248;2023-10-13T03:24:43;14.40;;;8.32;;
43670;SDS011;29267;50.906;7.248;2023-10-13T03:27:11;17.80;;;8.50;;
43670;SDS011;29267;50.906;7.248;2023-10-13T03:29:42;23.83;;;9.27;;
43670;SDS011;29267;50.906;7.248;2023-10-13T03:32:12;18.08;;;8.07;;
43670;SDS011;29267;50.906;7.248;2023-10-13T03:34:44;16.33;;;9.45;;
43670;SDS011;29267;50.906;7.248;2023-10-13T03:37:26;15.63;;;8.45;;
43670;SDS011;29267;50.906;7.248;2023-10-13T03:40:03;24.05;;;10.57;;
43670;SDS011;29267;50.906;7.248;2023-10-13T03:42:45;19.33;;;9.63;;
43670;SDS011;29267;50.906;7.248;2023-10-13T03:45:41;19.75;;;9.48;;
43670;SDS011;29267;50.906;7.248;2023-10-13T03:50:37;22.52;;;9.70;;
43670;SDS011;29267;50.906;7.248;2023-10-13T03:53:22;16.75;;;9.52;;
43670;SDS011;29267;50.906;7.248;2023-10-13T03:55:50;21.80;;;10.20;;
43670;SDS011;29267;50.906;7.248;2023-10-13T03:58:32;18.95;;;11.07;;
43670;SDS011;29267;50.906;7.248;2023-10-13T04:01:04;19.50;;;9.50;;
43670;SDS011;29267;50.906;7.248;2023-10-13T04:03:30;14.85;;;8.98;;
43670;SDS011;29267;50.906;7.248;2023-10-13T04:06:01;17.38;;;10.15;;
43670;SDS011;29267;50.906;7.248;2023-10-13T04:08:40;13.95;;;9.38;;
43670;SDS011;29267;50.906;7.248;2023-10-13T04:11:35;19.88;;;9.63;;
43670;SDS011;29267;50.906;7.248;2023-10-13T04:14:19;18.58;;;10.23;;
43670;SDS011;29267;50.906;7.248;2023-10-13T04:16:49;21.98;;;10.20;;
43670;SDS011;29267;50.906;7.248;2023-10-13T04:19:19;21.70;;;8.77;;
43670;SDS011;29267;50.906;7.248;2023-10-13T04:21:48;21.80;;;9.30;;
43670;SDS011;29267;50.906;7.248;2023-10-13T04:24:22;22.25;;;9.60;;
43670;SDS011;29267;50.906;7.248;2023-10-13T04:27:07;16.73;;;9.30;;
43670;SDS011;29267;50.906;7.248;2023-10-13T04:29:39;17.70;;;8.57;;
43670;SDS011;29267;50.906;7.248;2023-10-13T04:32:11;20.13;;;9.77;;
43670;SDS011;29267;50.906;7.248;2023-10-13T04:34:40;17.27;;;8.95;;
43670;SDS011;29267;50.906;7.248;2023-10-13T04:37:13;17.77;;;9.85;;
43670;SDS011;29267;50.906;7.248;2023-10-13T04:40:08;18.05;;;8.73;;
43670;SDS011;29267;50.906;7.248;2023-10-13T04:42:35;17.40;;;8.98;;
43670;SDS011;29267;50.906;7.248;2023-10-13T04:45:14;23.08;;;9.73;;
43670;SDS011;29267;50.906;7.248;2023-10-13T04:47:53;19.52;;;10.52;;
43670;SDS011;29267;50.906;7.248;2023-10-13T04:50:22;17.55;;;9.57;;
43670;SDS011;29267;50.906;7.248;2023-10-13T04:52:59;19.35;;;9.38;;
43670;SDS011;29267;50.906;7.248;2023-10-13T04:55:38;18.80;;;9.30;;
43670;SDS011;29267;50.906;7.248;2023-10-13T04:58:22;20.40;;;8.15;;
43670;SDS011;29267;50.906;7.248;2023-10-13T05:00:59;19.00;;;9.75;;
43670;SDS011;29267;50.906;7.248;2023-10-13T05:03:43;15.48;;;8.65;;
43670;SDS011;29267;50.906;7.248;2023-10-13T05:06:33;15.90;;;8.52;;
43670;SDS011;29267;50.906;7.248;2023-10-13T05:09:12;15.23;;;7.85;;
43670;SDS011;29267;50.906;7.248;2023-10-13T05:11:57;20.08;;;8.98;;
43670;SDS011;29267;50.906;7.248;2023-10-13T05:14:41;16.63;;;8.75;;
43670;SDS011;29267;50.906;7.248;2023-10-13T05:17:25;17.25;;;8.65;;
43670;SDS011;29267;50.906;7.248;2023-10-13T05:25:38;18.02;;;9.60;;
43670;SDS011;29267;50.906;7.248;2023-10-13T05:28:22;17.17;;;9.02;;
43670;SDS011;29267;50.906;7.248;2023-10-13T05:31:06;21.38;;;9.80;;
43670;SDS011;29267;50.906;7.248;2023-10-13T05:33:51;15.15;;;8.70;;
43670;SDS011;29267;50.906;7.248;2023-10-13T05:36:36;21.58;;;10.43;;
43670;SDS011;29267;50.906;7.248;2023-10-13T05:39:20;20.83;;;10.07;;
43670;SDS011;29267;50.906;7.248;2023-10-13T05:42:04;15.90;;;8.27;;
43670;SDS011;29267;50.906;7.248;2023-10-13T05:44:48;18.10;;;8.90;;
43670;SDS011;29267;50.906;7.248;2023-10-13T05:47:33;16.42;;;9.68;;
43670;SDS011;29267;50.906;7.248;2023-10-13T05:50:08;23.38;;;9.95;;
43670;SDS011;29267;50.906;7.248;2023-10-13T05:52:46;20.25;;;9.55;;
43670;SDS011;29267;50.906;7.248;2023-10-13T05:55:22;22.08;;;8.88;;
43670;SDS011;29267;50.906;7.248;2023-10-13T05:58:13;20.70;;;8.45;;
43670;SDS011;29267;50.906;7.248;2023-10-13T06:00:57;19.50;;;9.63;;
43670;SDS011;29267;50.906;7.248;2023-10-13T06:03:42;17.48;;;9.25;;
43670;SDS011;29267;50.906;7.248;2023-10-13T06:06:26;17.52;;;8.00;;
43670;SDS011;29267;50.906;7.248;2023-10-13T06:09:10;23.98;;;9.38;;
43670;SDS011;29267;50.906;7.248;2023-10-13T06:11:54;17.35;;;9.18;;
43670;SDS011;29267;50.906;7.248;2023-10-13T06:14:38;17.92;;;9.10;;
43670;SDS011;29267;50.906;7.248;2023-10-13T06:20:07;16.48;;;8.07;;
43670;SDS011;29267;50.906;7.248;2023-10-13T06:22:51;20.05;;;8.43;;
43670;SDS011;29267;50.906;7.248;2023-10-13T06:25:35;22.80;;;9.57;;
43670;SDS011;29267;50.906;7.248;2023-10-13T06:28:19;17.02;;;7.90;;
43670;SDS011;29267;50.906;7.248;2023-10-13T06:31:04;15.77;;;8.88;;
43670;SDS011;29267;50.906;7.248;2023-10-13T06:33:33;22.63;;;7.90;;
43670;SDS011;29267;50.906;7.248;2023-10-13T06:36:01;13.10;;;5.93;;
43670;SDS011;29267;50.906;7.248;2023-10-13T06:38:27;15.63;;;7.13;;
43670;SDS011;29267;50.906;7.248;2023-10-13T06:41:00;16.92;;;6.80;;
43670;SDS011;29267;50.906;7.248;2023-10-13T06:46:10;12.52;;;6.45;;
43670;SDS011;29267;50.906;7.248;2023-10-13T06:48:48;21.15;;;6.43;;
43670;SDS011;29267;50.906;7.248;2023-10-13T06:51:15;21.70;;;7.20;;
43670;SDS011;29267;50.906;7.248;2023-10-13T06:53:46;14.52;;;6.65;;
43670;SDS011;29267;50.906;7.248;2023-10-13T06:56:16;14.40;;;6.57;;
43670;SDS011;29267;50.906;7.248;2023-10-13T06:58:47;14.70;;;5.97;;
43670;SDS011;29267;50.906;7.248;2023-10-13T07:01:12;13.15;;;6.00;;
43670;SDS011;29267;50.906;7.248;2023-10-13T07:03:40;18.58;;;6.65;;
43670;SDS011;29267;50.906;7.248;2023-10-13T07:06:14;9.77;;;5.82;;
43670;SDS011;29267;50.906;7.248;2023-10-13T07:08:44;11.63;;;6.47;;
43670;SDS011;29267;50.906;7.248;2023-10-13T07:11:16;21.88;;;6.30;;
43670;SDS011;29267;50.906;7.248;2023-10-13T07:14:03;12.38;;;5.22;;
43670;SDS011;29267;50.906;7.248;2023-10-13T07:16:36;15.00;;;5.07;;
43670;SDS011;29267;50.906;7.248;2023-10-13T07:19:11;16.20;;;6.03;;
43670;SDS011;29267;50.906;7.248;2023-10-13T07:21:42;14.48;;;5.38;;
43670;SDS011;29267;50.906;7.248;2023-10-13T07:24:11;21.83;;;6.43;;
43670;SDS011;29267;50.906;7.248;2023-10-13T07:26:38;13.77;;;5.22;;
43670;SDS011;29267;50.906;7.248;2023-10-13T07:29:08;25.33;;;5.63;;
43670;SDS011;29267;50.906;7.248;2023-10-13T07:31:34;15.93;;;5.55;;
43670;SDS011;29267;50.906;7.248;2023-10-13T07:34:00;14.15;;;5.10;;
43670;SDS011;29267;50.906;7.248;2023-10-13T07:36:30;15.38;;;4.97;;
43670;SDS011;29267;50.906;7.248;2023-10-13T07:39:04;17.90;;;6.20;;
43670;SDS011;29267;50.906;7.248;2023-10-13T07:41:50;17.55;;;5.53;;
43670;SDS011;29267;50.906;7.248;2023-10-13T07:44:19;12.95;;;5.20;;
43670;SDS011;29267;50.906;7.248;2023-10-13T07:46:50;16.52;;;5.00;;
43670;SDS011;29267;50.906;7.248;2023-10-13T07:49:25;14.60;;;4.65;;
43670;SDS011;29267;50.906;7.248;2023-10-13T07:51:56;11.35;;;4.47;;
43670;SDS011;29267;50.906;7.248;2023-10-13T07:54:25;11.43;;;4.90;;
43670;SDS011;29267;50.906;7.248;2023-10-13T07:56:51;14.75;;;4.93;;
43670;SDS011;29267;50.906;7.248;2023-10-13T07:59:19;10.70;;;4.57;;
43670;SDS011;29267;50.906;7.248;2023-10-13T08:01:47;16.52;;;4.65;;
43670;SDS011;29267;50.906;7.248;2023-10-13T08:04:31;12.80;;;4.05;;
43670;SDS011;29267;50.906;7.248;2023-10-13T08:07:00;17.67;;;4.88;;
43670;SDS011;29267;50.906;7.248;2023-10-13T08:09:37;16.83;;;4.82;;
43670;SDS011;29267;50.906;7.248;2023-10-13T08:12:06;27.70;;;4.63;;
43670;SDS011;29267;50.906;7.248;2023-10-13T08:14:36;20.27;;;4.75;;
43670;SDS011;29267;50.906;7.248;2023-10-13T08:17:07;15.48;;;4.10;;
43670;SDS011;29267;50.906;7.248;2023-10-13T08:19:36;13.93;;;4.28;;
43670;SDS011;29267;50.906;7.248;2023-10-13T08:22:06;11.10;;;4.22;;
43670;SDS011;29267;50.906;7.248;2023-10-13T08:24:48;11.52;;;4.15;;
43670;SDS011;29267;50.906;7.248;2023-10-13T08:27:16;15.32;;;4.05;;
43670;SDS011;29267;50.906;7.248;2023-10-13T08:30:13;17.08;;;4.53;;
43670;SDS011;29267;50.906;7.248;2023-10-13T08:32:51;15.13;;;3.83;;
43670;SDS011;29267;50.906;7.248;2023-10-13T08:35:22;9.60;;;4.00;;
43670;SDS011;29267;50.906;7.248;2023-10-13T08:37:54;9.60;;;4.10;;
43670;SDS011;29267;50.906;7.248;2023-10-13T08:40:22;19.60;;;3.80;;
43670;SDS011;29267;50.906;7.248;2023-10-13T08:43:11;11.38;;;3.80;;
43670;SDS011;29267;50.906;7.248;2023-10-13T08:45:41;12.85;;;4.60;;
43670;SDS011;29267;50.906;7.248;2023-10-13T08:48:08;11.48;;;4.47;;
43670;SDS011;29267;50.906;7.248;2023-10-13T08:50:45;13.63;;;4.55;;
43670;SDS011;29267;50.906;7.248;2023-10-13T08:53:18;9.55;;;3.97;;
43670;SDS011;29267;50.906;7.248;2023-10-13T08:58:51;14.70;;;4.30;;
43670;SDS011;29267;50.906;7.248;2023-10-13T09:01:20;16.92;;;5.03;;
43670;SDS011;29267;50.906;7.248;2023-10-13T09:04:05;12.60;;;4.22;;
43670;SDS011;29267;50.906;7.248;2023-10-13T09:06:51;16.45;;;4.20;;
43670;SDS011;29267;50.906;7.248;2023-10-13T09:14:44;15.30;;;4.90;;
43670;SDS011;29267;50.906;7.248;2023-10-13T09:17:22;11.18;;;4.00;;
43670;SDS011;29267;50.906;7.248;2023-10-13T09:20:01;20.75;;;5.55;;
43670;SDS011;29267;50.906;7.248;2023-10-13T09:25:27;11.88;;;4.43;;
43670;SDS011;29267;50.906;7.248;2023-10-13T09:30:46;16.25;;;4.07;;
43670;SDS011;29267;50.906;7.248;2023-10-13T09:33:12;13.65;;;4.50;;
43670;SDS011;29267;50.906;7.248;2023-10-13T09:35:45;14.40;;;4.53;;
43670;SDS011;29267;50.906;7.248;2023-10-13T09:38:17;18.23;;;4.38;;
43670;SDS011;29267;50.906;7.248;2023-10-13T09:40:44;11.38;;;4.00;;
43670;SDS011;29267;50.906;7.248;2023-10-13T09:43:16;11.43;;;3.50;;
43670;SDS011;29267;50.906;7.248;2023-10-13T09:45:43;10.60;;;4.18;;
43670;SDS011;29267;50.906;7.248;2023-10-13T09:48:33;12.63;;;4.82;;
43670;SDS011;29267;50.906;7.248;2023-10-13T09:51:03;14.18;;;4.28;;
43670;SDS011;29267;50.906;7.248;2023-10-13T09:53:32;7.35;;;3.60;;
43670;SDS011;29267;50.906;7.248;2023-10-13T09:56:03;11.70;;;4.43;;
43670;SDS011;29267;50.906;7.248;2023-10-13T10:01:36;10.95;;;5.20;;
43670;SDS011;29267;50.906;7.248;2023-10-13T10:04:06;8.75;;;4.05;;
43670;SDS011;29267;50.906;7.248;2023-10-13T10:06:34;11.60;;;4.45;;
43670;SDS011;29267;50.906;7.248;2023-10-13T10:09:05;19.52;;;4.68;;
43670;SDS011;29267;50.906;7.248;2023-10-13T10:17:41;13.10;;;4.47;;
43670;SDS011;29267;50.906;7.248;2023-10-13T10:20:08;10.05;;;4.90;;
43670;SDS011;29267;50.906;7.248;2023-10-13T10:22:57;14.30;;;4.75;;
43670;SDS011;29267;50.906;7.248;2023-10-13T10:25:28;13.02;;;5.32;;
43670;SDS011;29267;50.906;7.248;2023-10-13T10:28:00;12.02;;;4.13;;
43670;SDS011;29267;50.906;7.248;2023-10-13T10:30:31;9.85;;;4.45;;
43670;SDS011;29267;50.906;7.248;2023-10-13T10:33:07;11.25;;;4.28;;
43670;SDS011;29267;50.906;7.248;2023-10-13T10:35:44;6.95;;;4.05;;
43670;SDS011;29267;50.906;7.248;2023-10-13T10:38:12;11.75;;;4.85;;
43670;SDS011;29267;50.906;7.248;2023-10-13T10:40:54;13.45;;;4.65;;
43670;SDS011;29267;50.906;7.248;2023-10-13T10:45:54;12.40;;;3.92;;
43670;SDS011;29267;50.906;7.248;2023-10-13T10:48:24;13.15;;;5.70;;
43670;SDS011;29267;50.906;7.248;2023-10-13T10:50:56;12.27;;;4.28;;
43670;SDS011;29267;50.906;7.248;2023-10-13T10:53:24;9.40;;;4.85;;
43670;SDS011;29267;50.906;7.248;2023-10-13T10:56:08;11.20;;;4.93;;
43670;SDS011;29267;50.906;7.248;2023-10-13T10:58:45;10.73;;;4.78;;
43670;SDS011;29267;50.906;7.248;2023-10-13T11:01:11;9.38;;;4.03;;
43670;SDS011;29267;50.906;7.248;2023-10-13T11:03:52;8.95;;;4.45;;
43670;SDS011;29267;50.906;7.248;2023-10-13T11:06:33;10.80;;;4.70;;
43670;SDS011;29267;50.906;7.248;2023-10-13T11:09:06;14.95;;;5.18;;
43670;SDS011;29267;50.906;7.248;2023-10-13T11:11:53;17.75;;;5.43;;
43670;SDS011;29267;50.906;7.248;2023-10-13T11:14:28;8.25;;;4.53;;
43670;SDS011;29267;50.906;7.248;2023-10-13T11:16:55;11.17;;;4.73;;
43670;SDS011;29267;50.906;7.248;2023-10-13T11:22:17;10.18;;;5.05;;
43670;SDS011;29267;50.906;7.248;2023-10-13T11:25:04;13.38;;;4.82;;
43670;SDS011;29267;50.906;7.248;2023-10-13T11:27:38;9.50;;;4.50;;
43670;SDS011;29267;50.906;7.248;2023-10-13T11:30:19;13.02;;;4.82;;
43670;SDS011;29267;50.906;7.248;2023-10-13T11:32:58;13.70;;;4.78;;
43670;SDS011;29267;50.906;7.248;2023-10-13T11:35:30;9.57;;;4.60;;
43670;SDS011;29267;50.906;7.248;2023-10-13T11:38:21;9.00;;;4.35;;
43670;SDS011;29267;50.906;7.248;2023-10-13T11:41:17;14.07;;;5.07;;
43670;SDS011;29267;50.906;7.248;2023-10-13T11:43:47;12.32;;;5.18;;
43670;SDS011;29267;50.906;7.248;2023-10-13T11:46:26;11.75;;;4.35;;
43670;SDS011;29267;50.906;7.248;2023-10-13T11:49:04;9.25;;;4.10;;
43670;SDS011;29267;50.906;7.248;2023-10-13T11:51:48;12.65;;;4.47;;
43670;SDS011;29267;50.906;7.248;2023-10-13T11:54:19;15.23;;;4.35;;
43670;SDS011;29267;50.906;7.248;2023-10-13T11:56:48;8.93;;;4.40;;
43670;SDS011;29267;50.906;7.248;2023-10-13T11:59:14;12.05;;;4.70;;
43670;SDS011;29267;50.906;7.248;2023-10-13T12:01:46;12.52;;;3.97;;
43670;SDS011;29267;50.906;7.248;2023-10-13T12:04:31;15.02;;;4.90;;
43670;SDS011;29267;50.906;7.248;2023-10-13T12:07:33;14.35;;;4.57;;
43670;SDS011;29267;50.906;7.248;2023-10-13T12:10:13;13.65;;;4.25;;
43670;SDS011;29267;50.906;7.248;2023-10-13T12:13:01;12.55;;;4.03;;
43670;SDS011;29267;50.906;7.248;2023-10-13T12:18:13;13.65;;;4.63;;
43670;SDS011;29267;50.906;7.248;2023-10-13T12:20:40;10.50;;;4.50;;
43670;SDS011;29267;50.906;7.248;2023-10-13T12:23:10;15.40;;;5.38;;
43670;SDS011;29267;50.906;7.248;2023-10-13T12:25:44;13.82;;;5.18;;
43670;SDS011;29267;50.906;7.248;2023-10-13T12:28:19;11.00;;;4.20;;
43670;SDS011;29267;50.906;7.248;2023-10-13T12:30:48;11.10;;;5.00;;
43670;SDS011;29267;50.906;7.248;2023-10-13T12:33:14;14.57;;;4.43;;
43670;SDS011;29267;50.906;7.248;2023-10-13T12:35:49;10.57;;;4.57;;
43670;SDS011;29267;50.906;7.248;2023-10-13T12:38:35;14.88;;;4.45;;
43670;SDS011;29267;50.906;7.248;2023-10-13T12:41:05;10.90;;;4.75;;
43670;SDS011;29267;50.906;7.248;2023-10-13T12:43:50;8.45;;;4.05;;
43670;SDS011;29267;50.906;7.248;2023-10-13T12:46:34;18.00;;;4.72;;
43670;SDS011;29267;50.906;7.248;2023-10-13T12:49:18;13.75;;;4.90;;
43670;SDS011;29267;50.906;7.248;2023-10-13T12:52:02;15.20;;;4.28;;
43670;SDS011;29267;50.906;7.248;2023-10-13T12:54:27;13.35;;;4.05;;
43670;SDS011;29267;50.906;7.248;2023-10-13T12:57:00;8.53;;;4.27;;
43670;SDS011;29267;50.906;7.248;2023-10-13T12:59:26;14.80;;;4.35;;
43670;SDS011;29267;50.906;7.248;2023-10-13T13:01:52;10.98;;;5.18;;
43670;SDS011;29267;50.906;7.248;2023-10-13T13:04:18;14.07;;;4.50;;
43670;SDS011;29267;50.906;7.248;2023-10-13T13:06:47;11.00;;;4.70;;
43670;SDS011;29267;50.906;7.248;2023-10-13T13:09:14;15.93;;;4.30;;
43670;SDS011;29267;50.906;7.248;2023-10-13T13:11:40;9.38;;;3.95;;
43670;SDS011;29267;50.906;7.248;2023-10-13T13:14:06;10.70;;;4.38;;
43670;SDS011;29267;50.906;7.248;2023-10-13T13:16:35;15.77;;;4.53;;
43670;SDS011;29267;50.906;7.248;2023-10-13T13:19:04;12.38;;;3.85;;
43670;SDS011;29267;50.906;7.248;2023-10-13T13:21:35;22.45;;;4.78;;
43670;SDS011;29267;50.906;7.248;2023-10-13T13:24:02;14.63;;;4.10;;
43670;SDS011;29267;50.906;7.248;2023-10-13T13:26:29;10.48;;;4.47;;
43670;SDS011;29267;50.906;7.248;2023-10-13T13:28:56;8.93;;;3.90;;
43670;SDS011;29267;50.906;7.248;2023-10-13T13:31:22;13.52;;;4.85;;
43670;SDS011;29267;50.906;7.248;2023-10-13T13:33:54;6.82;;;4.05;;
43670;SDS011;29267;50.906;7.248;2023-10-13T13:36:20;10.93;;;3.97;;
43670;SDS011;29267;50.906;7.248;2023-10-13T13:38:47;10.60;;;3.83;;
43670;SDS011;29267;50.906;7.248;2023-10-13T13:41:19;16.08;;;4.65;;
43670;SDS011;29267;50.906;7.248;2023-10-13T13:43:49;14.60;;;3.97;;
43670;SDS011;29267;50.906;7.248;2023-10-13T13:46:15;18.67;;;4.70;;
43670;SDS011;29267;50.906;7.248;2023-10-13T13:48:54;10.38;;;4.70;;
43670;SDS011;29267;50.906;7.248;2023-10-13T13:51:24;9.65;;;3.90;;
43670;SDS011;29267;50.906;7.248;2023-10-13T13:53:57;11.05;;;4.28;;
43670;SDS011;29267;50.906;7.248;2023-10-13T13:56:24;17.20;;;4.47;;
43670;SDS011;29267;50.906;7.248;2023-10-13T13:58:51;10.63;;;4.47;;
43670;SDS011;29267;50.906;7.248;2023-10-13T14:01:32;11.45;;;4.30;;
43670;SDS011;29267;50.906;7.248;2023-10-13T14:04:02;10.68;;;4.45;;
43670;SDS011;29267;50.906;7.248;2023-10-13T14:06:31;10.68;;;4.38;;
43670;SDS011;29267;50.906;7.248;2023-10-13T14:08:58;14.10;;;5.38;;
43670;SDS011;29267;50.906;7.248;2023-10-13T14:11:29;11.00;;;4.10;;
43670;SDS011;29267;50.906;7.248;2023-10-13T14:14:08;13.60;;;4.15;;
43670;SDS011;29267;50.906;7.248;2023-10-13T14:16:41;11.70;;;4.10;;
43670;SDS011;29267;50.906;7.248;2023-10-13T14:19:12;13.60;;;4.03;;
43670;SDS011;29267;50.906;7.248;2023-10-13T14:21:44;10.13;;;4.53;;
43670;SDS011;29267;50.906;7.248;2023-10-13T14:24:10;11.55;;;4.30;;
43670;SDS011;29267;50.906;7.248;2023-10-13T14:26:39;10.80;;;3.95;;
43670;SDS011;29267;50.906;7.248;2023-10-13T14:29:05;11.10;;;2.83;;
43670;SDS011;29267;50.906;7.248;2023-10-13T14:31:33;13.95;;;4.10;;
43670;SDS011;29267;50.906;7.248;2023-10-13T14:34:03;8.65;;;3.92;;
43670;SDS011;29267;50.906;7.248;2023-10-13T14:36:29;11.50;;;4.25;;
43670;SDS011;29267;50.906;7.248;2023-10-13T14:38:59;10.35;;;4.40;;
43670;SDS011;29267;50.906;7.248;2023-10-13T14:41:25;18.73;;;5.30;;
43670;SDS011;29267;50.906;7.248;2023-10-13T14:43:51;10.35;;;3.78;;
43670;SDS011;29267;50.906;7.248;2023-10-13T14:46:17;10.98;;;4.35;;
43670;SDS011;29267;50.906;7.248;2023-10-13T14:48:43;12.38;;;3.58;;
43670;SDS011;29267;50.906;7.248;2023-10-13T14:51:12;7.72;;;3.78;;
43670;SDS011;29267;50.906;7.248;2023-10-13T14:53:41;14.95;;;4.45;;
43670;SDS011;29267;50.906;7.248;2023-10-13T14:56:09;23.55;;;4.93;;
43670;SDS011;29267;50.906;7.248;2023-10-13T14:58:35;11.07;;;4.00;;
43670;SDS011;29267;50.906;7.248;2023-10-13T15:01:01;10.13;;;3.55;;
43670;SDS011;29267;50.906;7.248;2023-10-13T15:03:28;20.25;;;4.78;;
43670;SDS011;29267;50.906;7.248;2023-10-13T15:05:55;10.63;;;3.85;;
43670;SDS011;29267;50.906;7.248;2023-10-13T15:08:20;10.10;;;3.80;;
43670;SDS011;29267;50.906;7.248;2023-10-13T15:10:46;12.35;;;3.88;;
43670;SDS011;29267;50.906;7.248;2023-10-13T15:13:11;9.93;;;4.07;;
43670;SDS011;29267;50.906;7.248;2023-10-13T15:15:37;16.67;;;4.30;;
43670;SDS011;29267;50.906;7.248;2023-10-13T15:18:04;46.90;;;22.92;;
43670;SDS011;29267;50.906;7.248;2023-10-13T15:20:30;25.48;;;11.10;;
43670;SDS011;29267;50.906;7.248;2023-10-13T15:22:55;14.85;;;5.30;;
43670;SDS011;29267;50.906;7.248;2023-10-13T15:25:25;9.60;;;4.47;;
43670;SDS011;29267;50.906;7.248;2023-10-13T15:28:00;14.55;;;4.70;;
43670;SDS011;29267;50.906;7.248;2023-10-13T15:30:33;14.93;;;4.60;;
43670;SDS011;29267;50.906;7.248;2023-10-13T15:33:20;12.15;;;4.22;;
43670;SDS011;29267;50.906;7.248;2023-10-13T15:35:46;8.95;;;3.63;;
43670;SDS011;29267;50.906;7.248;2023-10-13T15:38:12;15.40;;;4.38;;
43670;SDS011;29267;50.906;7.248;2023-10-13T15:40:41;9.70;;;3.83;;
43670;SDS011;29267;50.906;7.248;2023-10-13T15:43:08;9.05;;;3.60;;
43670;SDS011;29267;50.906;7.248;2023-10-13T15:45:33;13.57;;;4.60;;
43670;SDS011;29267;50.906;7.248;2023-10-13T15:48:04;13.98;;;4.47;;
43670;SDS011;29267;50.906;7.248;2023-10-13T15:50:35;13.68;;;4.55;;
43670;SDS011;29267;50.906;7.248;2023-10-13T15:53:07;10.77;;;4.32;;
43670;SDS011;29267;50.906;7.248;2023-10-13T15:55:36;20.38;;;8.85;;
43670;SDS011;29267;50.906;7.248;2023-10-13T15:58:03;14.52;;;6.97;;
43670;SDS011;29267;50.906;7.248;2023-10-13T16:00:32;13.27;;;7.10;;
43670;SDS011;29267;50.906;7.248;2023-10-13T16:03:00;10.93;;;4.53;;
43670;SDS011;29267;50.906;7.248;2023-10-13T16:05:29;11.95;;;5.07;;